createdAt,value
2023-02-20T00:01:11.457Z,100169.06
2023-02-20T00:03:40.957Z,100173.47
2023-02-20T00:06:12.965Z,100176.03
2023-02-20T00:08:46.597Z,100176.13
2023-02-20T00:11:16.543Z,100169.22
2023-02-20T00:13:46.925Z,100158.84
2023-02-20T00:16:14.770Z,100156.19
2023-02-20T00:18:45.799Z,100162.28
2023-02-20T00:21:13.890Z,100148.41
2023-02-20T00:23:41.555Z,100131.91
2023-02-20T00:26:10.867Z,100141.34
2023-02-20T00:28:42.810Z,100142.13
2023-02-20T00:31:14.707Z,100156.41
2023-02-20T00:33:44.062Z,100150.22
2023-02-20T00:36:19.030Z,100140.81
2023-02-20T00:38:47.294Z,100141.50
2023-02-20T00:41:15.572Z,100140.81
2023-02-20T00:43:43.286Z,100139.91
2023-02-20T00:46:13.152Z,100144.66
2023-02-20T00:48:41.074Z,100144.63
2023-02-20T00:51:10.006Z,100143.84
2023-02-20T00:53:37.660Z,100142.22
2023-02-20T00:56:05.585Z,100143.13
2023-02-20T00:58:33.211Z,100136.34
2023-02-20T01:01:00.812Z,100146.91
2023-02-20T01:03:28.622Z,100141.63
2023-02-20T01:05:56.258Z,100147.75
2023-02-20T01:08:25.277Z,100138.31
2023-02-20T01:10:52.878Z,100134.78
2023-02-20T01:13:20.777Z,100144.53
2023-02-20T01:15:48.468Z,100139.31
2023-02-20T01:18:16.096Z,100137.63
2023-02-20T01:20:43.713Z,100138.47
2023-02-20T01:23:11.520Z,100131.53
2023-02-20T01:25:40.527Z,100133.31
2023-02-20T01:28:08.240Z,100131.53
2023-02-20T01:30:35.906Z,100134.16
2023-02-20T01:33:03.758Z,100140.28
2023-02-20T01:35:32.122Z,100119.31
2023-02-20T01:38:00.108Z,100134.84
2023-02-20T01:40:29.175Z,100115.78
2023-02-20T01:42:58.053Z,100101.06
2023-02-20T01:45:43.458Z,100114.88
2023-02-20T01:48:20.394Z,100112.25
2023-02-20T01:50:48.493Z,100107.78
2023-02-20T01:53:18.480Z,100110.47
2023-02-20T01:55:49.565Z,100106.91
2023-02-20T01:58:21.937Z,100107.06
2023-02-20T02:00:49.536Z,100106.28
2023-02-20T02:03:19.774Z,100107.22
2023-02-20T02:05:48.585Z,100093.22
2023-02-20T02:08:18.024Z,100091.47
2023-02-20T02:10:50.467Z,100086.13
2023-02-20T02:13:19.625Z,100088.88
2023-02-20T02:15:47.331Z,100075.09
2023-02-20T02:18:36.131Z,100083.91
2023-02-20T02:21:33.548Z,100072.66
2023-02-20T02:24:38.888Z,100074.41
2023-02-20T02:27:31.556Z,100077.97
2023-02-20T02:30:18.176Z,100066.75
2023-02-20T02:33:06.091Z,100072.97
2023-02-20T02:36:12.888Z,100077.28
2023-02-20T02:38:45.243Z,100059.75
2023-02-20T02:41:19.536Z,100048.56
2023-02-20T02:43:52.642Z,100059.78
2023-02-20T02:46:24.292Z,100054.72
2023-02-20T02:48:55.389Z,100078.19
2023-02-20T02:51:27.058Z,100067.75
2023-02-20T02:54:10.629Z,100048.50
2023-02-20T02:56:40.586Z,100059.94
2023-02-20T02:59:11.016Z,100056.47
2023-02-20T03:01:42.014Z,100051.25
2023-02-20T03:04:11.626Z,100067.75
2023-02-20T03:06:40.861Z,100030.28
2023-02-20T03:09:12.026Z,100064.28
2023-02-20T03:11:40.837Z,100059.00
2023-02-20T03:14:29.353Z,100056.38
2023-02-20T03:17:01.078Z,100057.28
2023-02-20T03:19:32.573Z,100052.97
2023-02-20T03:22:01.725Z,100062.47
2023-02-20T03:24:32.461Z,100058.09
2023-02-20T03:27:00.521Z,100053.78
2023-02-20T03:29:31.539Z,100034.75
2023-02-20T03:32:20.577Z,100059.97
2023-02-20T03:35:07.111Z,100059.91
2023-02-20T03:37:54.072Z,100058.16
2023-02-20T03:40:41.695Z,100054.56
2023-02-20T03:43:25.077Z,100048.66
2023-02-20T03:45:53.553Z,100026.09
2023-02-20T03:48:27.299Z,100061.72
2023-02-20T03:51:12.540Z,100047.03
2023-02-20T03:53:40.408Z,100059.06
2023-02-20T03:56:12.050Z,100047.81
2023-02-20T03:58:42.329Z,100042.69
2023-02-20T04:01:11.308Z,100051.41
2023-02-20T04:03:41.557Z,100039.31
2023-02-20T04:06:10.630Z,100018.50
2023-02-20T04:08:40.691Z,100026.22
2023-02-20T04:11:11.662Z,100045.31
2023-02-20T04:13:40.087Z,100038.41
2023-02-20T04:16:08.813Z,100041.88
2023-02-20T04:18:36.817Z,100027.19
2023-02-20T04:21:08.643Z,100023.59
2023-02-20T04:23:39.824Z,100020.91
2023-02-20T04:26:11.320Z,100025.31
2023-02-20T04:28:39.355Z,100025.34
2023-02-20T04:31:07.100Z,100011.47
2023-02-20T04:33:34.823Z,100037.53
2023-02-20T04:36:02.468Z,100014.84
2023-02-20T04:38:30.158Z,100023.66
2023-02-20T04:40:57.824Z,100034.09
2023-02-20T04:43:26.789Z,100010.72
2023-02-20T04:45:54.388Z,100019.38
2023-02-20T04:48:22.190Z,100028.06
2023-02-20T04:50:49.905Z,100037.66
2023-02-20T04:53:17.498Z,100048.97
2023-02-20T04:55:45.080Z,100045.50
2023-02-20T04:58:12.655Z,100046.38
2023-02-20T05:00:41.647Z,100056.84
2023-02-20T05:03:09.286Z,100056.03
2023-02-20T05:05:36.927Z,100050.84
2023-02-20T05:08:06.349Z,100052.53
2023-02-20T05:10:35.013Z,100039.41
2023-02-20T05:13:03.121Z,100016.97
2023-02-20T05:15:32.182Z,100043.00
2023-02-20T05:18:01.139Z,100017.00
2023-02-20T05:20:43.158Z,100053.44
2023-02-20T05:23:10.861Z,100052.59
2023-02-20T05:25:38.851Z,100054.31
2023-02-20T05:28:06.787Z,100016.09
2023-02-20T05:30:34.519Z,100044.72
2023-02-20T05:33:03.582Z,100052.56
2023-02-20T05:35:31.195Z,100049.97
2023-02-20T05:37:58.801Z,100056.97
2023-02-20T05:40:26.500Z,100044.81
2023-02-20T05:42:54.092Z,100041.38
2023-02-20T05:45:21.775Z,100048.28
2023-02-20T05:47:49.571Z,100014.38
2023-02-20T05:50:18.898Z,100044.72
2023-02-20T05:52:46.884Z,100046.50
2023-02-20T05:55:14.520Z,100034.28
2023-02-20T05:57:42.137Z,100042.13
2023-02-20T06:00:11.090Z,100038.63
2023-02-20T06:02:38.740Z,100040.34
2023-02-20T06:05:07.617Z,100037.72
2023-02-20T06:07:37.400Z,100031.56
2023-02-20T06:10:05.582Z,100006.47
2023-02-20T06:12:33.163Z,100019.41
2023-02-20T06:15:00.777Z,100021.16
2023-02-20T06:17:29.722Z,100012.44
2023-02-20T06:19:57.440Z,100018.53
2023-02-20T06:22:25.219Z,100010.66
2023-02-20T06:24:54.125Z,100014.19
2023-02-20T06:27:21.757Z,100015.06
2023-02-20T06:29:49.355Z,100016.75
2023-02-20T06:32:17.541Z,100015.03
2023-02-20T06:34:45.850Z,100016.75
2023-02-20T06:37:13.922Z,100017.69
2023-02-20T06:39:43.084Z,100012.44
2023-02-20T06:42:12.079Z,100016.84
2023-02-20T06:44:39.779Z,100020.25
2023-02-20T06:47:09.043Z,100022.03
2023-02-20T06:49:36.689Z,100011.59
2023-02-20T06:52:05.461Z,100006.41
2023-02-20T06:54:33.899Z,100020.28
2023-02-20T06:57:02.233Z,100022.03
2023-02-20T06:59:31.201Z,100015.13
2023-02-20T07:01:58.959Z,100032.50
2023-02-20T07:04:28.020Z,100027.25
2023-02-20T07:06:56.529Z,100038.56
2023-02-20T07:09:25.283Z,100040.31
2023-02-20T07:11:53.434Z,100044.66
2023-02-20T07:14:21.202Z,100034.25
2023-02-20T07:16:50.317Z,100041.88
2023-02-20T07:19:18.041Z,100044.47
2023-02-20T07:21:47.540Z,100044.41
2023-02-20T07:24:15.231Z,100040.03
2023-02-20T07:26:42.916Z,100050.44
2023-02-20T07:29:10.928Z,100040.88
2023-02-20T07:31:39.186Z,100042.56
2023-02-20T07:34:08.334Z,100034.66
2023-02-20T07:36:36.224Z,100034.72
2023-02-20T07:39:06.639Z,100036.25
2023-02-20T07:41:34.994Z,100043.06
2023-02-20T07:44:02.631Z,100039.44
2023-02-20T07:46:33.678Z,100040.25
2023-02-20T07:49:02.069Z,100028.78
2023-02-20T07:51:31.372Z,100013.63
2023-02-20T07:53:59.052Z,100025.47
2023-02-20T07:56:26.745Z,100011.19
2023-02-20T07:58:54.344Z,100009.28
2023-02-20T08:01:21.981Z,100018.50
2023-02-20T08:03:49.737Z,100000.91
2023-02-20T08:06:18.096Z,99997.25
2023-02-20T08:08:50.334Z,99996.28
2023-02-20T08:11:18.568Z,99996.09
2023-02-20T08:13:46.553Z,99987.31
2023-02-20T08:16:14.573Z,99980.25
2023-02-20T08:18:42.358Z,99984.50
2023-02-20T08:21:09.988Z,99986.50
2023-02-20T08:23:37.676Z,99980.91
2023-02-20T08:26:07.056Z,99973.50
2023-02-20T08:28:34.754Z,99968.31
2023-02-20T08:31:02.630Z,99953.50
2023-02-20T08:33:30.414Z,99966.66
2023-02-20T08:35:58.096Z,99965.75
2023-02-20T08:38:30.228Z,99957.88
2023-02-20T08:40:58.283Z,99945.78
2023-02-20T08:43:28.275Z,99949.22
2023-02-20T08:45:56.367Z,99952.00
2023-02-20T08:48:24.108Z,99933.75
2023-02-20T08:50:51.925Z,99946.72
2023-02-20T08:53:19.572Z,99925.50
2023-02-20T08:55:47.258Z,99946.19
2023-02-20T08:58:15.014Z,99919.97
2023-02-20T09:00:44.548Z,99922.56
2023-02-20T09:03:12.311Z,99940.50
2023-02-20T09:05:40.077Z,99939.00
2023-02-20T09:08:07.696Z,99918.41
2023-02-20T09:10:35.348Z,99942.16
2023-02-20T09:13:03.122Z,99935.75
2023-02-20T09:15:31.806Z,99940.84
2023-02-20T09:18:00.795Z,99932.50
2023-02-20T09:20:28.347Z,99941.34
2023-02-20T09:22:58.736Z,99929.09
2023-02-20T09:25:26.409Z,99926.31
2023-02-20T09:27:54.086Z,99917.44
2023-02-20T09:30:22.907Z,99924.19
2023-02-20T09:32:51.306Z,99949.09
2023-02-20T09:35:22.555Z,99934.59
2023-02-20T09:37:50.331Z,99937.16
2023-02-20T09:40:18.805Z,99933.16
2023-02-20T09:42:54.746Z,99936.53
2023-02-20T09:45:24.131Z,99916.19
2023-02-20T09:48:07.308Z,99932.19
2023-02-20T09:50:38.770Z,99931.19
2023-02-20T09:53:17.555Z,99914.72
2023-02-20T09:55:45.394Z,99917.84
2023-02-20T09:58:21.164Z,99916.81
2023-02-20T10:00:48.870Z,99936.97
2023-02-20T10:03:22.374Z,99935.72
2023-02-20T10:05:51.445Z,99945.34
2023-02-20T10:08:21.374Z,99938.72
2023-02-20T10:10:51.136Z,99920.25
2023-02-20T10:13:32.901Z,99914.53
2023-02-20T10:16:04.912Z,99935.81
2023-02-20T10:18:37.988Z,99934.03
2023-02-20T10:21:12.609Z,99943.06
2023-02-20T10:23:49.384Z,99942.53
2023-02-20T10:26:28.267Z,99937.63
2023-02-20T10:28:57.586Z,99919.03
2023-02-20T10:31:31.045Z,99940.31
2023-02-20T10:34:02.394Z,99938.69
2023-02-20T10:36:37.569Z,99937.22
2023-02-20T10:39:08.340Z,99916.63
2023-02-20T10:41:39.883Z,99923.66
2023-02-20T10:44:13.071Z,99943.25
2023-02-20T10:46:49.279Z,99948.28
2023-02-20T10:49:21.005Z,99902.06
2023-02-20T10:51:52.612Z,99929.72
2023-02-20T10:54:24.401Z,99906.56
2023-02-20T10:56:56.695Z,99939.41
2023-02-20T10:59:27.279Z,99929.75
2023-02-20T11:01:57.287Z,99936.41
2023-02-20T11:04:28.320Z,99898.16
2023-02-20T11:07:02.110Z,99904.81
2023-02-20T11:09:35.944Z,99903.38
2023-02-20T11:12:03.797Z,99896.94
2023-02-20T11:14:40.635Z,99929.09
2023-02-20T11:17:10.571Z,99899.41
2023-02-20T11:19:41.834Z,99922.41
2023-02-20T11:22:10.927Z,99922.22
2023-02-20T11:24:39.936Z,99927.25
2023-02-20T11:27:10.872Z,99901.66
2023-02-20T11:29:42.504Z,99918.59
2023-02-20T11:32:30.530Z,99897.88
2023-02-20T11:35:16.645Z,99901.72
2023-02-20T11:37:54.855Z,99893.00
2023-02-20T11:40:28.649Z,99881.69
2023-02-20T11:42:56.473Z,99886.72
2023-02-20T11:45:25.692Z,99884.13
2023-02-20T11:48:13.237Z,99882.94
2023-02-20T11:50:42.539Z,99893.31
2023-02-20T11:53:20.041Z,99871.56
2023-02-20T11:55:59.512Z,99865.13
2023-02-20T11:58:29.264Z,99858.53
2023-02-20T12:00:57.184Z,99855.09
2023-02-20T12:03:28.248Z,99854.00
2023-02-20T12:05:57.135Z,99849.78
2023-02-20T12:08:53.861Z,99835.63
2023-02-20T12:11:22.673Z,99816.28
2023-02-20T12:13:52.799Z,99808.34
2023-02-20T12:16:58.779Z,99819.78
2023-02-20T12:19:30.536Z,99828.06
2023-02-20T12:22:02.715Z,99792.69
2023-02-20T12:24:43.604Z,99793.75
2023-02-20T12:27:27.234Z,99807.19
2023-02-20T12:29:58.973Z,99801.63
2023-02-20T12:32:36.549Z,99773.56
2023-02-20T12:35:13.416Z,99791.09
2023-02-20T12:37:48.789Z,99794.31
2023-02-20T12:40:35.451Z,99777.91
2023-02-20T12:43:11.470Z,99757.94
2023-02-20T12:45:41.951Z,99788.94
2023-02-20T12:48:21.886Z,99782.06
2023-02-20T12:50:58.061Z,99757.88
2023-02-20T12:53:35.452Z,99748.00
2023-02-20T12:56:22.012Z,99743.53
2023-02-20T12:58:55.724Z,99757.59
2023-02-20T13:01:38.399Z,99767.88
2023-02-20T13:04:18.478Z,99747.84
2023-02-20T13:06:51.382Z,99751.78
2023-02-20T13:09:22.972Z,99743.41
2023-02-20T13:11:54.665Z,99768.94
2023-02-20T13:14:32.073Z,99766.50
2023-02-20T13:17:08.007Z,99752.81
2023-02-20T13:19:41.515Z,99738.84
2023-02-20T13:22:09.623Z,99755.25
2023-02-20T13:24:38.312Z,99751.16
2023-02-20T13:27:08.557Z,99742.59
2023-02-20T13:29:38.004Z,99744.72
2023-02-20T13:32:23.987Z,99713.22
2023-02-20T13:34:51.644Z,99734.44
2023-02-20T13:37:54.409Z,99727.50
2023-02-20T13:40:43.371Z,99719.00
2023-02-20T13:43:27.267Z,99715.72
2023-02-20T13:46:24.865Z,99713.78
2023-02-20T13:48:54.664Z,99707.06
2023-02-20T13:51:32.681Z,99709.31
2023-02-20T13:54:11.620Z,99678.13
2023-02-20T13:56:48.590Z,99700.53
2023-02-20T13:59:19.761Z,99684.91
2023-02-20T14:02:13.939Z,99693.16
2023-02-20T14:04:53.131Z,99679.13
2023-02-20T14:07:28.764Z,99651.59
2023-02-20T14:10:01.540Z,99630.00
2023-02-20T14:12:29.154Z,99631.16
2023-02-20T14:14:58.434Z,99659.97
2023-02-20T14:17:26.224Z,99659.88
2023-02-20T14:20:08.606Z,99653.81
2023-02-20T14:22:40.953Z,99660.03
2023-02-20T14:25:29.710Z,99645.19
2023-02-20T14:28:14.909Z,99635.59
2023-02-20T14:30:44.146Z,99634.53
2023-02-20T14:33:25.826Z,99631.50
2023-02-20T14:36:19.305Z,99617.13
2023-02-20T14:39:11.182Z,99610.59
2023-02-20T14:41:38.932Z,99606.59
2023-02-20T14:44:15.866Z,99602.88
2023-02-20T14:46:44.819Z,99592.81
2023-02-20T14:49:14.450Z,99593.66
2023-02-20T14:51:42.277Z,99597.03
2023-02-20T14:54:19.735Z,99585.78
2023-02-20T14:56:48.261Z,99588.81
2023-02-20T14:59:27.130Z,99589.38
2023-02-20T15:01:58.425Z,99579.78
2023-02-20T15:04:26.875Z,99583.53
2023-02-20T15:06:56.519Z,99577.06
2023-02-20T15:09:24.298Z,99585.00
2023-02-20T15:11:53.281Z,99579.31
2023-02-20T15:14:23.319Z,99571.81
2023-02-20T15:17:07.791Z,99577.44
2023-02-20T15:19:38.277Z,99570.09
2023-02-20T15:22:06.305Z,99568.66
2023-02-20T15:24:41.641Z,99563.34
2023-02-20T15:27:14.784Z,99571.88
2023-02-20T15:29:43.578Z,99573.75
2023-02-20T15:32:22.218Z,99576.84
2023-02-20T15:34:52.712Z,99577.25
2023-02-20T15:37:30.039Z,99588.16
2023-02-20T15:40:19.263Z,99575.50
2023-02-20T15:42:46.917Z,99579.63
2023-02-20T15:45:14.833Z,99560.63
2023-02-20T15:47:43.828Z,99581.16
2023-02-20T15:50:11.518Z,99565.41
2023-02-20T15:52:39.126Z,99568.47
2023-02-20T15:55:07.408Z,99568.63
2023-02-20T15:57:34.988Z,99552.25
2023-02-20T16:00:02.724Z,99549.59
2023-02-20T16:02:33.018Z,99558.47
2023-02-20T16:05:01.981Z,99554.91
2023-02-20T16:07:29.883Z,99542.59
2023-02-20T16:09:57.483Z,99555.19
2023-02-20T16:12:26.856Z,99561.69
2023-02-20T16:14:54.512Z,99555.09
2023-02-20T16:17:25.014Z,99563.97
2023-02-20T16:19:52.721Z,99560.22
2023-02-20T16:22:21.735Z,99569.81
2023-02-20T16:24:49.443Z,99572.47
2023-02-20T16:27:24.744Z,99574.72
2023-02-20T16:29:52.845Z,99581.56
2023-02-20T16:32:25.353Z,99571.31
2023-02-20T16:34:53.760Z,99582.19
2023-02-20T16:37:23.292Z,99573.88
2023-02-20T16:39:51.050Z,99576.03
2023-02-20T16:42:24.721Z,99568.72
2023-02-20T16:44:55.032Z,99564.44
2023-02-20T16:47:24.966Z,99572.53
2023-02-20T16:49:52.926Z,99569.66
2023-02-20T16:52:25.711Z,99560.56
2023-02-20T16:54:54.242Z,99565.97
2023-02-20T16:57:24.500Z,99558.03
2023-02-20T16:59:55.568Z,99559.19
2023-02-20T17:02:25.045Z,99556.94
2023-02-20T17:04:52.675Z,99555.22
2023-02-20T17:07:20.470Z,99550.44
2023-02-20T17:09:49.643Z,99547.66
2023-02-20T17:12:19.816Z,99547.00
2023-02-20T17:14:47.614Z,99539.38
2023-02-20T17:17:15.858Z,99536.31
2023-02-20T17:19:44.443Z,99541.53
2023-02-20T17:22:12.877Z,99543.25
2023-02-20T17:24:42.258Z,99555.78
2023-02-20T17:27:12.801Z,99555.13
2023-02-20T17:29:40.732Z,99566.59
2023-02-20T17:32:08.422Z,99567.41
2023-02-20T17:34:36.032Z,99578.34
2023-02-20T17:37:03.727Z,99585.75
2023-02-20T17:39:31.352Z,99568.00
2023-02-20T17:41:59.170Z,99584.44
2023-02-20T17:44:30.544Z,99578.84
2023-02-20T17:47:00.057Z,99585.88
2023-02-20T17:49:28.763Z,99571.13
2023-02-20T17:51:59.064Z,99587.84
2023-02-20T17:54:27.228Z,99587.06
2023-02-20T17:56:55.596Z,99599.19
2023-02-20T17:59:24.364Z,99594.38
2023-02-20T18:01:53.418Z,99594.72
2023-02-20T18:04:21.525Z,99598.47
2023-02-20T18:06:49.314Z,99601.91
2023-02-20T18:09:18.805Z,99594.38
2023-02-20T18:11:46.596Z,99592.28
2023-02-20T18:14:15.022Z,99587.34
2023-02-20T18:16:42.920Z,99605.66
2023-02-20T18:19:13.718Z,99600.25
2023-02-20T18:21:43.277Z,99598.50
2023-02-20T18:24:11.023Z,99604.84
2023-02-20T18:26:39.176Z,99593.41
2023-02-20T18:29:06.904Z,99593.47
2023-02-20T18:31:34.649Z,99599.72
2023-02-20T18:34:03.524Z,99598.09
2023-02-20T18:36:32.460Z,99596.75
2023-02-20T18:39:00.261Z,99590.88
2023-02-20T18:41:28.546Z,99595.19
2023-02-20T18:43:56.176Z,99595.41
2023-02-20T18:46:28.341Z,99553.66
2023-02-20T18:48:56.256Z,99597.66
2023-02-20T18:51:28.535Z,99593.41
2023-02-20T18:53:57.628Z,99568.50
2023-02-20T18:56:26.086Z,99601.47
2023-02-20T18:58:55.050Z,99593.00
2023-02-20T19:01:23.250Z,99593.25
2023-02-20T19:03:52.781Z,99595.06
2023-02-20T19:06:27.856Z,99590.84
2023-02-20T19:08:57.018Z,99590.03
2023-02-20T19:11:24.626Z,99597.97
2023-02-20T19:13:52.403Z,99601.59
2023-02-20T19:16:20.440Z,99585.88
2023-02-20T19:18:50.815Z,99596.00
2023-02-20T19:21:19.373Z,99598.03
2023-02-20T19:23:47.903Z,99602.28
2023-02-20T19:26:17.268Z,99600.31
2023-02-20T19:28:44.992Z,99606.56
2023-02-20T19:31:13.631Z,99614.06
2023-02-20T19:33:42.008Z,99593.41
2023-02-20T19:36:10.722Z,99613.19
2023-02-20T19:38:39.314Z,99599.88
2023-02-20T19:41:07.056Z,99607.56
2023-02-20T19:43:35.971Z,99612.16
2023-02-20T19:46:03.654Z,99600.91
2023-02-20T19:48:31.380Z,99610.03
2023-02-20T19:50:59.014Z,99610.78
2023-02-20T19:53:26.684Z,99613.44
2023-02-20T19:55:54.702Z,99613.44
2023-02-20T19:58:22.368Z,99615.22
2023-02-20T20:00:51.422Z,99603.72
2023-02-20T20:03:19.120Z,99608.94
2023-02-20T20:05:46.805Z,99603.59
2023-02-20T20:08:14.501Z,99604.53
2023-02-20T20:10:42.207Z,99603.66
2023-02-20T20:13:09.758Z,99601.34
2023-02-20T20:15:37.857Z,99609.25
2023-02-20T20:18:07.482Z,99603.41
2023-02-20T20:20:36.457Z,99614.38
2023-02-20T20:23:05.949Z,99615.66
2023-02-20T20:25:33.805Z,99621.94
2023-02-20T20:28:02.093Z,99619.38
2023-02-20T20:30:32.410Z,99623.00
2023-02-20T20:33:00.141Z,99588.41
2023-02-20T20:35:30.643Z,99610.75
2023-02-20T20:37:58.311Z,99607.44
2023-02-20T20:40:27.030Z,99600.03
2023-02-20T20:42:55.003Z,99596.44
2023-02-20T20:45:24.277Z,99600.19
2023-02-20T20:47:51.876Z,99592.41
2023-02-20T20:50:21.158Z,99594.09
2023-02-20T20:52:50.678Z,99594.41
2023-02-20T20:55:18.605Z,99602.94
2023-02-20T20:57:46.205Z,99602.91
2023-02-20T21:00:21.094Z,99599.41
2023-02-20T21:02:48.721Z,99595.47
2023-02-20T21:05:16.654Z,99593.78
2023-02-20T21:07:44.300Z,99605.75
2023-02-20T21:10:13.494Z,99600.44
2023-02-20T21:12:41.215Z,99597.78
2023-02-20T21:15:10.287Z,99599.50
2023-02-20T21:17:37.951Z,99596.84
2023-02-20T21:20:07.848Z,99595.16
2023-02-20T21:22:35.471Z,99592.41
2023-02-20T21:25:03.735Z,99600.25
2023-02-20T21:27:32.716Z,99594.03
2023-02-20T21:30:00.329Z,99588.84
2023-02-20T21:32:29.755Z,99597.28
2023-02-20T21:34:57.637Z,99579.75
2023-02-20T21:37:25.382Z,99584.13
2023-02-20T21:39:54.330Z,99590.19
2023-02-20T21:42:39.696Z,99592.00
2023-02-20T21:45:09.122Z,99583.28
2023-02-20T21:47:36.954Z,99580.66
2023-02-20T21:50:06.262Z,99592.69
2023-02-20T21:52:36.840Z,99587.56
2023-02-20T21:55:06.589Z,99586.75
2023-02-20T21:57:36.316Z,99592.94
2023-02-20T22:00:03.748Z,99583.91
2023-02-20T22:02:31.596Z,99575.06
2023-02-20T22:04:58.192Z,99565.44
2023-02-20T22:07:44.735Z,99573.25
2023-02-20T22:10:30.593Z,99579.25
2023-02-20T22:13:16.464Z,99574.72
2023-02-20T22:16:02.106Z,99562.63
2023-02-20T22:18:49.287Z,99576.25
2023-02-20T22:21:38.968Z,99566.03
2023-02-20T22:24:37.305Z,99572.09
2023-02-20T22:27:24.248Z,99567.47
2023-02-20T22:30:10.022Z,99568.28
2023-02-20T22:32:55.736Z,99574.47
2023-02-20T22:35:42.876Z,99583.00
2023-02-20T22:38:28.740Z,99572.47
2023-02-20T22:41:15.186Z,99561.16
2023-02-20T22:44:01.032Z,99569.97
2023-02-20T22:46:46.901Z,99558.53
2023-02-20T22:49:32.736Z,99554.09
2023-02-20T22:52:19.831Z,99550.44
2023-02-20T22:55:08.123Z,99542.59
2023-02-20T22:57:54.153Z,99528.63
2023-02-20T23:00:40.155Z,99536.66
2023-02-20T23:03:29.899Z,99544.53
2023-02-20T23:06:18.479Z,99542.03
2023-02-20T23:09:07.262Z,99538.59
2023-02-20T23:11:54.102Z,99539.63
2023-02-20T23:14:39.954Z,99553.00
2023-02-20T23:17:35.546Z,99549.41
2023-02-20T23:20:22.620Z,99542.25
2023-02-20T23:23:08.011Z,99545.09
2023-02-20T23:25:55.028Z,99525.84
2023-02-20T23:28:40.695Z,99540.59
2023-02-20T23:31:26.294Z,99532.75
2023-02-20T23:34:12.311Z,99540.78
2023-02-20T23:37:04.181Z,99545.38
2023-02-20T23:39:50.305Z,99553.16
2023-02-20T23:42:37.507Z,99547.16
2023-02-20T23:45:24.327Z,99543.06
2023-02-20T23:48:10.101Z,99550.91
2023-02-20T23:50:55.689Z,99544.91
2023-02-20T23:53:41.343Z,99544.03
2023-02-20T23:56:30.492Z,99541.34
2023-02-20T23:59:17.189Z,99538.50
